sensor_id;sensor_type;location;lat;lon;timestamp;pressure;altitude;pressure_sealevel;temperature;humidity
48606;BME280;8482;54.396;18.590;2023-11-21T00:00:19;101085.09;;;1.83;66.76
48606;BME280;8482;54.396;18.590;2023-11-21T00:02:46;101093.91;;;1.80;66.70
48606;BME280;8482;54.396;18.590;2023-11-21T00:05:13;101106.22;;;1.78;66.47
48606;BME280;8482;54.396;18.590;2023-11-21T00:07:43;101104.59;;;1.74;66.55
48606;BME280;8482;54.396;18.590;2023-11-21T00:10:10;101099.41;;;1.73;66.59
48606;BME280;8482;54.396;18.590;2023-11-21T00:12:37;101104.81;;;1.68;67.07
48606;BME280;8482;54.396;18.590;2023-11-21T00:15:04;101109.94;;;1.71;66.71
48606;BME280;8482;54.396;18.590;2023-11-21T00:17:35;101098.78;;;1.66;66.83
48606;BME280;8482;54.396;18.590;2023-11-21T00:20:00;101105.78;;;1.65;66.98
48606;BME280;8482;54.396;18.590;2023-11-21T00:22:26;101117.09;;;1.66;66.66
48606;BME280;8482;54.396;18.590;2023-11-21T00:24:52;101110.28;;;1.62;67.15
48606;BME280;8482;54.396;18.590;2023-11-21T00:27:18;101113.78;;;1.61;67.32
48606;BME280;8482;54.396;18.590;2023-11-21T00:29:43;101121.53;;;1.64;67.27
48606;BME280;8482;54.396;18.590;2023-11-21T00:32:09;101124.16;;;1.64;67.09
48606;BME280;8482;54.396;18.590;2023-11-21T00:34:35;101119.94;;;1.60;67.42
48606;BME280;8482;54.396;18.590;2023-11-21T00:37:01;101131.19;;;1.62;67.20
48606;BME280;8482;54.396;18.590;2023-11-21T00:39:28;101128.69;;;1.59;67.53
48606;BME280;8482;54.396;18.590;2023-11-21T00:41:54;101120.03;;;1.57;67.13
48606;BME280;8482;54.396;18.590;2023-11-21T00:44:20;101137.38;;;1.59;66.87
48606;BME280;8482;54.396;18.590;2023-11-21T00:46:45;101135.78;;;1.55;67.08
48606;BME280;8482;54.396;18.590;2023-11-21T00:49:11;101134.88;;;1.56;67.14
48606;BME280;8482;54.396;18.590;2023-11-21T00:51:37;101133.06;;;1.58;67.32
48606;BME280;8482;54.396;18.590;2023-11-21T00:54:03;101128.63;;;1.60;67.26
48606;BME280;8482;54.396;18.590;2023-11-21T00:56:29;101124.25;;;1.61;66.82
48606;BME280;8482;54.396;18.590;2023-11-21T00:58:54;101124.09;;;1.65;67.48
48606;BME280;8482;54.396;18.590;2023-11-21T01:01:21;101132.66;;;1.69;67.33
48606;BME280;8482;54.396;18.590;2023-11-21T01:03:48;101130.84;;;1.71;66.77
48606;BME280;8482;54.396;18.590;2023-11-21T01:06:15;101132.50;;;1.74;66.96
48606;BME280;8482;54.396;18.590;2023-11-21T01:08:41;101128.06;;;1.76;67.17
48606;BME280;8482;54.396;18.590;2023-11-21T01:11:07;101134.03;;;1.79;67.04
48606;BME280;8482;54.396;18.590;2023-11-21T01:13:39;101138.34;;;1.82;66.89
48606;BME280;8482;54.396;18.590;2023-11-21T01:16:05;101142.59;;;1.84;66.37
48606;BME280;8482;54.396;18.590;2023-11-21T01:18:32;101143.31;;;1.88;66.64
48606;BME280;8482;54.396;18.590;2023-11-21T01:20:58;101151.97;;;1.90;66.00
48606;BME280;8482;54.396;18.590;2023-11-21T01:23:26;101133.03;;;1.83;65.74
48606;BME280;8482;54.396;18.590;2023-11-21T01:25:55;101146.81;;;1.89;66.37
48606;BME280;8482;54.396;18.590;2023-11-21T01:28:21;101140.78;;;1.87;66.14
48606;BME280;8482;54.396;18.590;2023-11-21T01:30:48;101151.78;;;1.96;66.16
48606;BME280;8482;54.396;18.590;2023-11-21T01:33:15;101156.09;;;1.97;66.26
48606;BME280;8482;54.396;18.590;2023-11-21T01:35:42;101162.00;;;2.03;66.53
48606;BME280;8482;54.396;18.590;2023-11-21T01:38:08;101158.38;;;2.07;66.10
48606;BME280;8482;54.396;18.590;2023-11-21T01:40:35;101169.56;;;2.10;66.01
48606;BME280;8482;54.396;18.590;2023-11-21T01:43:01;101172.13;;;2.12;65.96
48606;BME280;8482;54.396;18.590;2023-11-21T01:45:30;101170.38;;;2.12;66.04
48606;BME280;8482;54.396;18.590;2023-11-21T01:48:00;101174.72;;;2.12;65.64
48606;BME280;8482;54.396;18.590;2023-11-21T01:50:26;101178.28;;;2.11;65.42
48606;BME280;8482;54.396;18.590;2023-11-21T01:52:53;101179.94;;;2.13;65.96
48606;BME280;8482;54.396;18.590;2023-11-21T01:55:20;101170.25;;;2.16;66.62
48606;BME280;8482;54.396;18.590;2023-11-21T01:57:46;101174.53;;;2.18;65.21
48606;BME280;8482;54.396;18.590;2023-11-21T02:00:13;101179.81;;;2.17;65.65
48606;BME280;8482;54.396;18.590;2023-11-21T02:02:45;101178.94;;;2.16;65.00
48606;BME280;8482;54.396;18.590;2023-11-21T02:05:13;101180.66;;;2.17;64.84
48606;BME280;8482;54.396;18.590;2023-11-21T02:07:41;101188.44;;;2.19;65.14
48606;BME280;8482;54.396;18.590;2023-11-21T02:10:09;101181.53;;;2.18;65.42
48606;BME280;8482;54.396;18.590;2023-11-21T02:12:35;101186.78;;;2.18;65.17
48606;BME280;8482;54.396;18.590;2023-11-21T02:15:05;101187.59;;;2.18;65.69
48606;BME280;8482;54.396;18.590;2023-11-21T02:17:36;101181.63;;;2.14;65.86
48606;BME280;8482;54.396;18.590;2023-11-21T02:20:02;101190.28;;;2.17;65.48
48606;BME280;8482;54.396;18.590;2023-11-21T02:22:32;101194.56;;;2.19;64.89
48606;BME280;8482;54.396;18.590;2023-11-21T02:25:04;101197.16;;;2.19;65.37
48606;BME280;8482;54.396;18.590;2023-11-21T02:27:29;101195.47;;;2.18;65.32
48606;BME280;8482;54.396;18.590;2023-11-21T02:29:55;101200.69;;;2.18;65.31
48606;BME280;8482;54.396;18.590;2023-11-21T02:32:21;101201.44;;;2.22;64.61
48606;BME280;8482;54.396;18.590;2023-11-21T02:34:48;101206.66;;;2.22;64.47
48606;BME280;8482;54.396;18.590;2023-11-21T02:37:15;101210.97;;;2.24;64.36
48606;BME280;8482;54.396;18.590;2023-11-21T02:39:41;101204.84;;;2.24;64.27
48606;BME280;8482;54.396;18.590;2023-11-21T02:42:07;101199.63;;;2.24;64.46
48606;BME280;8482;54.396;18.590;2023-11-21T02:44:33;101209.19;;;2.25;64.71
48606;BME280;8482;54.396;18.590;2023-11-21T02:46:59;101198.00;;;2.20;64.06
48606;BME280;8482;54.396;18.590;2023-11-21T02:49:25;101215.50;;;2.19;63.92
48606;BME280;8482;54.396;18.590;2023-11-21T02:51:54;101209.53;;;2.16;64.00
48606;BME280;8482;54.396;18.590;2023-11-21T02:54:21;101214.75;;;2.16;63.85
48606;BME280;8482;54.396;18.590;2023-11-21T02:56:48;101214.78;;;2.14;64.09
48606;BME280;8482;54.396;18.590;2023-11-21T02:59:15;101202.75;;;2.10;64.50
48606;BME280;8482;54.396;18.590;2023-11-21T03:01:42;101214.88;;;2.12;63.56
48606;BME280;8482;54.396;18.590;2023-11-21T03:04:07;101215.78;;;2.11;63.75
48606;BME280;8482;54.396;18.590;2023-11-21T03:06:33;101216.59;;;2.12;63.84
48606;BME280;8482;54.396;18.590;2023-11-21T03:08:59;101217.66;;;2.08;63.75
48606;BME280;8482;54.396;18.590;2023-11-21T03:11:25;101224.47;;;2.12;63.93
48606;BME280;8482;54.396;18.590;2023-11-21T03:13:51;101230.56;;;2.12;64.18
48606;BME280;8482;54.396;18.590;2023-11-21T03:16:19;101234.16;;;2.10;64.00
48606;BME280;8482;54.396;18.590;2023-11-21T03:18:45;101229.69;;;2.12;64.21
48606;BME280;8482;54.396;18.590;2023-11-21T03:21:11;101235.00;;;2.10;64.07
48606;BME280;8482;54.396;18.590;2023-11-21T03:23:37;101238.41;;;2.12;63.52
48606;BME280;8482;54.396;18.590;2023-11-21T03:26:03;101240.13;;;2.13;63.51
48606;BME280;8482;54.396;18.590;2023-11-21T03:28:30;101242.78;;;2.12;63.37
48606;BME280;8482;54.396;18.590;2023-11-21T03:30:56;101237.69;;;2.09;63.78
48606;BME280;8482;54.396;18.590;2023-11-21T03:33:22;101240.22;;;2.10;63.53
48606;BME280;8482;54.396;18.590;2023-11-21T03:35:48;101241.94;;;2.11;63.81
48606;BME280;8482;54.396;18.590;2023-11-21T03:38:15;101234.19;;;2.08;63.58
48606;BME280;8482;54.396;18.590;2023-11-21T03:40:42;101239.44;;;2.08;63.43
48606;BME280;8482;54.396;18.590;2023-11-21T03:43:08;101227.31;;;2.06;63.82
48606;BME280;8482;54.396;18.590;2023-11-21T03:45:33;101231.63;;;2.07;63.97
48606;BME280;8482;54.396;18.590;2023-11-21T03:47:59;101233.28;;;2.09;64.01
48606;BME280;8482;54.396;18.590;2023-11-21T03:50:29;101228.97;;;2.08;63.87
48606;BME280;8482;54.396;18.590;2023-11-21T03:52:54;101235.00;;;2.10;64.35
48606;BME280;8482;54.396;18.590;2023-11-21T03:55:20;101240.22;;;2.10;63.79
48606;BME280;8482;54.396;18.590;2023-11-21T03:57:46;101245.56;;;2.07;64.00
48606;BME280;8482;54.396;18.590;2023-11-21T04:00:12;101244.66;;;2.08;64.04
48606;BME280;8482;54.396;18.590;2023-11-21T04:02:38;101248.25;;;2.06;63.86
48606;BME280;8482;54.396;18.590;2023-11-21T04:05:05;101250.88;;;2.06;64.09
48606;BME280;8482;54.396;18.590;2023-11-21T04:07:32;101250.78;;;2.07;64.21
48606;BME280;8482;54.396;18.590;2023-11-21T04:09:59;101256.91;;;2.08;64.21
48606;BME280;8482;54.396;18.590;2023-11-21T04:12:25;101248.31;;;2.04;64.63
48606;BME280;8482;54.396;18.590;2023-11-21T04:14:51;101251.78;;;2.05;64.88
48606;BME280;8482;54.396;18.590;2023-11-21T04:17:20;101262.16;;;2.06;64.64
48606;BME280;8482;54.396;18.590;2023-11-21T04:19:46;101270.03;;;2.06;64.53
48606;BME280;8482;54.396;18.590;2023-11-21T04:22:12;101267.53;;;2.03;64.61
48606;BME280;8482;54.396;18.590;2023-11-21T04:24:38;101269.34;;;2.01;64.51
48606;BME280;8482;54.396;18.590;2023-11-21T04:27:04;101270.19;;;2.02;65.06
48606;BME280;8482;54.396;18.590;2023-11-21T04:29:30;101273.69;;;2.02;65.38
48606;BME280;8482;54.396;18.590;2023-11-21T04:31:56;101273.69;;;2.02;65.18
48606;BME280;8482;54.396;18.590;2023-11-21T04:34:22;101277.09;;;2.04;65.78
48606;BME280;8482;54.396;18.590;2023-11-21T04:36:47;101280.50;;;2.06;66.02
48606;BME280;8482;54.396;18.590;2023-11-21T04:39:13;101283.06;;;2.08;65.76
48606;BME280;8482;54.396;18.590;2023-11-21T04:41:39;101288.16;;;2.12;66.22
48606;BME280;8482;54.396;18.590;2023-11-21T04:44:06;101280.13;;;2.17;65.76
48606;BME280;8482;54.396;18.590;2023-11-21T04:46:32;101283.53;;;2.19;66.05
48606;BME280;8482;54.396;18.590;2023-11-21T04:48:58;101283.44;;;2.22;66.52
48606;BME280;8482;54.396;18.590;2023-11-21T04:51:24;101296.38;;;2.27;66.33
48606;BME280;8482;54.396;18.590;2023-11-21T04:53:50;101294.59;;;2.27;66.07
48606;BME280;8482;54.396;18.590;2023-11-21T04:56:16;101296.13;;;2.33;66.10
48606;BME280;8482;54.396;18.590;2023-11-21T04:58:42;101303.94;;;2.35;65.65
48606;BME280;8482;54.396;18.590;2023-11-21T05:01:08;101314.19;;;2.41;65.99
48606;BME280;8482;54.396;18.590;2023-11-21T05:03:34;101316.78;;;2.42;65.48
48606;BME280;8482;54.396;18.590;2023-11-21T05:06:00;101319.44;;;2.41;65.93
48606;BME280;8482;54.396;18.590;2023-11-21T05:08:26;101321.94;;;2.44;65.72
48606;BME280;8482;54.396;18.590;2023-11-21T05:10:52;101322.84;;;2.43;66.09
48606;BME280;8482;54.396;18.590;2023-11-21T05:13:20;101331.41;;;2.48;65.79
48606;BME280;8482;54.396;18.590;2023-11-21T05:15:46;101330.53;;;2.48;65.85
48606;BME280;8482;54.396;18.590;2023-11-21T05:18:12;101340.06;;;2.50;66.53
48606;BME280;8482;54.396;18.590;2023-11-21T05:20:39;101339.16;;;2.51;66.29
48606;BME280;8482;54.396;18.590;2023-11-21T05:23:07;101345.19;;;2.53;66.38
48606;BME280;8482;54.396;18.590;2023-11-21T05:25:34;101341.72;;;2.53;66.05
48606;BME280;8482;54.396;18.590;2023-11-21T05:28:00;101363.41;;;2.56;66.16
48606;BME280;8482;54.396;18.590;2023-11-21T05:30:27;101361.69;;;2.55;65.88
48606;BME280;8482;54.396;18.590;2023-11-21T05:32:53;101381.81;;;2.55;65.76
48606;BME280;8482;54.396;18.590;2023-11-21T05:35:19;101373.94;;;2.55;65.29
48606;BME280;8482;54.396;18.590;2023-11-21T05:37:48;101380.94;;;2.54;65.23
48606;BME280;8482;54.396;18.590;2023-11-21T05:40:14;101377.66;;;2.49;65.39
48606;BME280;8482;54.396;18.590;2023-11-21T05:42:40;101383.72;;;2.50;66.02
48606;BME280;8482;54.396;18.590;2023-11-21T05:45:08;101385.44;;;2.51;65.16
48606;BME280;8482;54.396;18.590;2023-11-21T05:47:42;101389.84;;;2.50;65.39
48606;BME280;8482;54.396;18.590;2023-11-21T05:50:10;101388.97;;;2.50;65.30
48606;BME280;8482;54.396;18.590;2023-11-21T05:52:38;101404.63;;;2.51;65.21
48606;BME280;8482;54.396;18.590;2023-11-21T05:55:05;101409.00;;;2.51;64.90
48606;BME280;8482;54.396;18.590;2023-11-21T05:57:38;101414.16;;;2.54;65.38
48606;BME280;8482;54.396;18.590;2023-11-21T06:00:07;101415.06;;;2.53;65.36
48606;BME280;8482;54.396;18.590;2023-11-21T06:02:40;101424.63;;;2.54;64.71
48606;BME280;8482;54.396;18.590;2023-11-21T06:05:09;101426.38;;;2.53;64.94
48606;BME280;8482;54.396;18.590;2023-11-21T06:07:37;101421.19;;;2.52;65.40
48606;BME280;8482;54.396;18.590;2023-11-21T06:10:04;101430.81;;;2.51;64.77
48606;BME280;8482;54.396;18.590;2023-11-21T06:12:35;101438.69;;;2.51;65.99
48606;BME280;8482;54.396;18.590;2023-11-21T06:15:05;101433.47;;;2.50;65.41
48606;BME280;8482;54.396;18.590;2023-11-21T06:17:35;101441.31;;;2.51;65.72
48606;BME280;8482;54.396;18.590;2023-11-21T06:20:07;101459.56;;;2.53;65.98
48606;BME280;8482;54.396;18.590;2023-11-21T06:22:40;101452.63;;;2.52;65.77
48606;BME280;8482;54.396;18.590;2023-11-21T06:25:08;101461.28;;;2.54;65.55
48606;BME280;8482;54.396;18.590;2023-11-21T06:27:41;101464.81;;;2.53;65.69
48606;BME280;8482;54.396;18.590;2023-11-21T06:30:08;101470.06;;;2.53;65.31
48606;BME280;8482;54.396;18.590;2023-11-21T06:32:36;101470.97;;;2.52;65.39
48606;BME280;8482;54.396;18.590;2023-11-21T06:35:03;101483.16;;;2.53;65.63
48606;BME280;8482;54.396;18.590;2023-11-21T06:37:31;101486.66;;;2.52;65.77
48606;BME280;8482;54.396;18.590;2023-11-21T06:39:58;101490.25;;;2.49;65.44
48606;BME280;8482;54.396;18.590;2023-11-21T06:42:25;101500.66;;;2.51;65.82
48606;BME280;8482;54.396;18.590;2023-11-21T06:44:51;101503.44;;;2.46;65.77
48606;BME280;8482;54.396;18.590;2023-11-21T06:47:18;101506.88;;;2.48;65.89
48606;BME280;8482;54.396;18.590;2023-11-21T06:49:46;101506.00;;;2.48;66.20
48606;BME280;8482;54.396;18.590;2023-11-21T06:52:15;101516.44;;;2.49;65.93
48606;BME280;8482;54.396;18.590;2023-11-21T06:54:40;101522.53;;;2.50;65.26
48606;BME280;8482;54.396;18.590;2023-11-21T06:57:06;101526.84;;;2.51;65.57
48606;BME280;8482;54.396;18.590;2023-11-21T06:59:33;101527.75;;;2.50;65.76
48606;BME280;8482;54.396;18.590;2023-11-21T07:01:59;101547.06;;;2.47;64.42
48606;BME280;8482;54.396;18.590;2023-11-21T07:04:25;101542.78;;;2.44;65.14
48606;BME280;8482;54.396;18.590;2023-11-21T07:06:54;101543.69;;;2.43;64.96
48606;BME280;8482;54.396;18.590;2023-11-21T07:09:20;101553.34;;;2.41;65.49
48606;BME280;8482;54.396;18.590;2023-11-21T07:11:52;101558.50;;;2.44;65.80
48606;BME280;8482;54.396;18.590;2023-11-21T07:14:17;101561.13;;;2.44;65.63
48606;BME280;8482;54.396;18.590;2023-11-21T07:16:45;101545.44;;;2.43;65.28
48606;BME280;8482;54.396;18.590;2023-11-21T07:19:12;101555.81;;;2.46;65.34
48606;BME280;8482;54.396;18.590;2023-11-21T07:21:39;101562.72;;;2.49;65.71
48606;BME280;8482;54.396;18.590;2023-11-21T07:24:07;101557.47;;;2.49;65.50
48606;BME280;8482;54.396;18.590;2023-11-21T07:26:34;101565.19;;;2.53;65.55
48606;BME280;8482;54.396;18.590;2023-11-21T07:29:04;101572.13;;;2.54;65.90
48606;BME280;8482;54.396;18.590;2023-11-21T07:31:31;101559.03;;;2.54;65.73
48606;BME280;8482;54.396;18.590;2023-11-21T07:34:00;101570.31;;;2.56;66.63
48606;BME280;8482;54.396;18.590;2023-11-21T07:36:26;101570.25;;;2.59;66.25
48606;BME280;8482;54.396;18.590;2023-11-21T07:38:53;101567.56;;;2.61;65.03
48606;BME280;8482;54.396;18.590;2023-11-21T07:41:19;101574.59;;;2.59;65.08
48606;BME280;8482;54.396;18.590;2023-11-21T07:43:46;101557.06;;;2.61;64.91
48606;BME280;8482;54.396;18.590;2023-11-21T07:46:13;101565.81;;;2.62;64.66
48606;BME280;8482;54.396;18.590;2023-11-21T07:48:40;101564.13;;;2.59;64.45
48606;BME280;8482;54.396;18.590;2023-11-21T07:51:08;101562.44;;;2.58;64.89
48606;BME280;8482;54.396;18.590;2023-11-21T07:53:34;101562.31;;;2.61;64.54
48606;BME280;8482;54.396;18.590;2023-11-21T07:56:05;101565.81;;;2.62;64.35
48606;BME280;8482;54.396;18.590;2023-11-21T07:58:31;101578.00;;;2.63;64.91
48606;BME280;8482;54.396;18.590;2023-11-21T08:01:00;101566.56;;;2.65;65.23
48606;BME280;8482;54.396;18.590;2023-11-21T08:03:25;101561.22;;;2.68;65.53
48606;BME280;8482;54.396;18.590;2023-11-21T08:05:58;101578.41;;;2.77;65.98
48606;BME280;8482;54.396;18.590;2023-11-21T08:08:25;101567.00;;;2.78;64.94
48606;BME280;8482;54.396;18.590;2023-11-21T08:10:52;101574.81;;;2.80;64.58
48606;BME280;8482;54.396;18.590;2023-11-21T08:13:26;101574.75;;;2.81;64.14
48606;BME280;8482;54.396;18.590;2023-11-21T08:15:57;101573.91;;;2.81;64.65
48606;BME280;8482;54.396;18.590;2023-11-21T08:18:27;101575.63;;;2.82;65.48
48606;BME280;8482;54.396;18.590;2023-11-21T08:20:54;101594.66;;;2.87;65.25
48606;BME280;8482;54.396;18.590;2023-11-21T08:23:21;101580.72;;;2.86;65.44
48606;BME280;8482;54.396;18.590;2023-11-21T08:25:52;101574.34;;;2.94;64.55
48606;BME280;8482;54.396;18.590;2023-11-21T08:28:19;101590.03;;;2.95;63.97
48606;BME280;8482;54.396;18.590;2023-11-21T08:30:45;101596.09;;;2.97;63.86
48606;BME280;8482;54.396;18.590;2023-11-21T08:33:11;101592.53;;;2.98;64.10
48606;BME280;8482;54.396;18.590;2023-11-21T08:35:38;101594.22;;;3.01;64.06
48606;BME280;8482;54.396;18.590;2023-11-21T08:38:04;101593.34;;;3.00;64.48
48606;BME280;8482;54.396;18.590;2023-11-21T08:40:30;101599.50;;;2.99;64.67
48606;BME280;8482;54.396;18.590;2023-11-21T08:42:56;101609.06;;;3.00;64.27
48606;BME280;8482;54.396;18.590;2023-11-21T08:45:25;101593.50;;;2.96;64.20
48606;BME280;8482;54.396;18.590;2023-11-21T08:47:54;101609.97;;;2.99;64.01
48606;BME280;8482;54.396;18.590;2023-11-21T08:50:20;101619.53;;;3.02;63.51
48606;BME280;8482;54.396;18.590;2023-11-21T08:52:46;101626.50;;;3.03;64.03
48606;BME280;8482;54.396;18.590;2023-11-21T08:55:12;101617.72;;;3.04;63.51
48606;BME280;8482;54.396;18.590;2023-11-21T08:57:39;101620.22;;;3.07;63.91
48606;BME280;8482;54.396;18.590;2023-11-21T09:00:08;101622.81;;;3.09;63.71
48606;BME280;8482;54.396;18.590;2023-11-21T09:02:40;101611.53;;;3.05;63.32
48606;BME280;8482;54.396;18.590;2023-11-21T09:05:09;101629.53;;;3.16;62.86
48606;BME280;8482;54.396;18.590;2023-11-21T09:07:40;101632.88;;;3.21;62.23
48606;BME280;8482;54.396;18.590;2023-11-21T09:10:07;101630.03;;;3.27;62.31
48606;BME280;8482;54.396;18.590;2023-11-21T09:12:36;101614.91;;;3.35;62.06
48606;BME280;8482;54.396;18.590;2023-11-21T09:15:07;101637.44;;;3.41;60.79
48606;BME280;8482;54.396;18.590;2023-11-21T09:17:34;101624.06;;;3.49;60.48
48606;BME280;8482;54.396;18.590;2023-11-21T09:20:00;101636.13;;;3.53;59.72
48606;BME280;8482;54.396;18.590;2023-11-21T09:22:26;101630.78;;;3.56;59.98
48606;BME280;8482;54.396;18.590;2023-11-21T09:24:52;101625.59;;;3.55;59.51
48606;BME280;8482;54.396;18.590;2023-11-21T09:27:19;101623.63;;;3.61;58.96
48606;BME280;8482;54.396;18.590;2023-11-21T09:29:45;101632.34;;;3.62;57.85
48606;BME280;8482;54.396;18.590;2023-11-21T09:32:13;101640.22;;;3.62;58.37
48606;BME280;8482;54.396;18.590;2023-11-21T09:34:41;101633.25;;;3.61;58.02
48606;BME280;8482;54.396;18.590;2023-11-21T09:37:08;101634.94;;;3.63;57.58
48606;BME280;8482;54.396;18.590;2023-11-21T09:39:34;101646.19;;;3.65;56.63
48606;BME280;8482;54.396;18.590;2023-11-21T09:42:20;101642.72;;;3.65;57.03
48606;BME280;8482;54.396;18.590;2023-11-21T09:45:05;101640.94;;;3.65;56.49
48606;BME280;8482;54.396;18.590;2023-11-21T09:47:38;101640.09;;;3.65;56.35
48606;BME280;8482;54.396;18.590;2023-11-21T09:50:05;101633.88;;;3.67;56.78
48606;BME280;8482;54.396;18.590;2023-11-21T09:55:18;101624.25;;;3.68;54.49
48606;BME280;8482;54.396;18.590;2023-11-21T09:57:48;101631.31;;;3.66;54.89
48606;BME280;8482;54.396;18.590;2023-11-21T10:00:17;101634.94;;;3.63;55.30
48606;BME280;8482;54.396;18.590;2023-11-21T10:02:46;101639.38;;;3.61;54.77
48606;BME280;8482;54.396;18.590;2023-11-21T10:05:16;101642.00;;;3.61;55.94
48606;BME280;8482;54.396;18.590;2023-11-21T10:07:43;101639.38;;;3.61;56.36
48606;BME280;8482;54.396;18.590;2023-11-21T10:10:18;101642.00;;;3.61;55.82
48606;BME280;8482;54.396;18.590;2023-11-21T10:12:51;101643.72;;;3.62;55.86
48606;BME280;8482;54.396;18.590;2023-11-21T10:15:22;101634.13;;;3.61;55.56
48606;BME280;8482;54.396;18.590;2023-11-21T10:17:52;101647.09;;;3.64;55.72
48606;BME280;8482;54.396;18.590;2023-11-21T10:20:20;101645.34;;;3.65;55.22
48606;BME280;8482;54.396;18.590;2023-11-21T10:22:46;101644.53;;;3.63;55.56
48606;BME280;8482;54.396;18.590;2023-11-21T10:25:13;101648.81;;;3.65;55.74
48606;BME280;8482;54.396;18.590;2023-11-21T10:27:42;101647.06;;;3.66;55.39
48606;BME280;8482;54.396;18.590;2023-11-21T10:30:10;101653.16;;;3.66;56.29
48606;BME280;8482;54.396;18.590;2023-11-21T10:32:41;101658.31;;;3.70;55.87
48606;BME280;8482;54.396;18.590;2023-11-21T10:35:09;101661.81;;;3.70;55.16
48606;BME280;8482;54.396;18.590;2023-11-21T10:37:39;101665.19;;;3.72;55.42
48606;BME280;8482;54.396;18.590;2023-11-21T10:40:11;101665.97;;;3.76;55.68
48606;BME280;8482;54.396;18.590;2023-11-21T10:42:41;101665.97;;;3.76;55.75
48606;BME280;8482;54.396;18.590;2023-11-21T10:45:08;101666.75;;;3.78;55.28
48606;BME280;8482;54.396;18.590;2023-11-21T10:47:41;101672.81;;;3.80;54.89
48606;BME280;8482;54.396;18.590;2023-11-21T10:50:08;101678.97;;;3.79;55.06
48606;BME280;8482;54.396;18.590;2023-11-21T10:52:44;101671.09;;;3.79;55.24
48606;BME280;8482;54.396;18.590;2023-11-21T10:55:20;101674.63;;;3.78;55.48
48606;BME280;8482;54.396;18.590;2023-11-21T10:57:52;101675.56;;;3.77;55.10
48606;BME280;8482;54.396;18.590;2023-11-21T11:00:18;101674.75;;;3.75;54.95
48606;BME280;8482;54.396;18.590;2023-11-21T11:02:50;101678.28;;;3.74;55.56
48606;BME280;8482;54.396;18.590;2023-11-21T11:05:20;101674.69;;;3.76;55.63
48606;BME280;8482;54.396;18.590;2023-11-21T11:07:50;101681.72;;;3.76;55.26
48606;BME280;8482;54.396;18.590;2023-11-21T11:10:21;101680.84;;;3.75;56.05
48606;BME280;8482;54.396;18.590;2023-11-21T11:12:48;101691.41;;;3.74;56.07
48606;BME280;8482;54.396;18.590;2023-11-21T11:15:16;101680.91;;;3.74;56.31
48606;BME280;8482;54.396;18.590;2023-11-21T11:17:43;101691.34;;;3.75;56.69
48606;BME280;8482;54.396;18.590;2023-11-21T11:20:13;101689.53;;;3.77;56.33
48606;BME280;8482;54.396;18.590;2023-11-21T11:25:38;101699.97;;;3.79;56.03
48606;BME280;8482;54.396;18.590;2023-11-21T11:28:20;101702.56;;;3.80;56.33
48606;BME280;8482;54.396;18.590;2023-11-21T11:36:35;101692.91;;;3.81;56.73
48606;BME280;8482;54.396;18.590;2023-11-21T11:39:03;101706.72;;;3.86;55.62
48606;BME280;8482;54.396;18.590;2023-11-21T11:41:32;101702.28;;;3.88;55.35
48606;BME280;8482;54.396;18.590;2023-11-21T11:44:01;101696.16;;;3.88;55.46
48606;BME280;8482;54.396;18.590;2023-11-21T11:46:47;101705.59;;;3.93;55.21
48606;BME280;8482;54.396;18.590;2023-11-21T11:49:27;101712.50;;;3.96;55.43
48606;BME280;8482;54.396;18.590;2023-11-21T11:52:35;101707.09;;;4.01;55.46
48606;BME280;8482;54.396;18.590;2023-11-21T11:55:03;101711.25;;;4.06;55.57
48606;BME280;8482;54.396;18.590;2023-11-21T11:57:34;101711.00;;;4.14;54.94
48606;BME280;8482;54.396;18.590;2023-11-21T12:00:17;101702.19;;;4.15;54.06
48606;BME280;8482;54.396;18.590;2023-11-21T12:02:51;101708.34;;;4.14;55.04
48606;BME280;8482;54.396;18.590;2023-11-21T12:05:19;101709.16;;;4.16;55.04
48606;BME280;8482;54.396;18.590;2023-11-21T12:07:56;101714.41;;;4.16;54.75
48606;BME280;8482;54.396;18.590;2023-11-21T12:10:31;101709.16;;;4.16;54.50
48606;BME280;8482;54.396;18.590;2023-11-21T12:13:07;101725.59;;;4.21;55.27
48606;BME280;8482;54.396;18.590;2023-11-21T12:15:34;101715.16;;;4.20;55.10
48606;BME280;8482;54.396;18.590;2023-11-21T12:18:01;101715.09;;;4.21;54.88
48606;BME280;8482;54.396;18.590;2023-11-21T12:20:28;101717.69;;;4.23;55.71
48606;BME280;8482;54.396;18.590;2023-11-21T12:22:56;101719.31;;;4.25;55.58
48606;BME280;8482;54.396;18.590;2023-11-21T12:25:30;101722.75;;;4.27;56.19
48606;BME280;8482;54.396;18.590;2023-11-21T12:27:58;101720.94;;;4.29;55.89
48606;BME280;8482;54.396;18.590;2023-11-21T12:30:31;101728.84;;;4.28;56.12
48606;BME280;8482;54.396;18.590;2023-11-21T12:33:00;101733.25;;;4.27;55.67
48606;BME280;8482;54.396;18.590;2023-11-21T12:35:28;101729.59;;;4.32;55.23
48606;BME280;8482;54.396;18.590;2023-11-21T12:37:56;101733.94;;;4.33;55.12
48606;BME280;8482;54.396;18.590;2023-11-21T12:40:25;101733.09;;;4.32;55.48
48606;BME280;8482;54.396;18.590;2023-11-21T12:43:07;101734.84;;;4.32;55.19
48606;BME280;8482;54.396;18.590;2023-11-21T12:45:42;101740.34;;;4.25;54.36
48606;BME280;8482;54.396;18.590;2023-11-21T12:48:14;101728.13;;;4.24;55.01
48606;BME280;8482;54.396;18.590;2023-11-21T12:50:41;101748.25;;;4.24;54.73
48606;BME280;8482;54.396;18.590;2023-11-21T12:53:10;101762.31;;;4.23;54.39
48606;BME280;8482;54.396;18.590;2023-11-21T12:55:43;101751.97;;;4.18;54.85
48606;BME280;8482;54.396;18.590;2023-11-21T12:58:15;101753.94;;;4.11;54.44
48606;BME280;8482;54.396;18.590;2023-11-21T13:00:48;101753.09;;;4.11;54.18
48606;BME280;8482;54.396;18.590;2023-11-21T13:03:16;101756.63;;;4.10;55.35
48606;BME280;8482;54.396;18.590;2023-11-21T13:05:46;101762.00;;;4.07;54.48
48606;BME280;8482;54.396;18.590;2023-11-21T13:08:16;101761.19;;;4.05;54.85
48606;BME280;8482;54.396;18.590;2023-11-21T13:10:46;101766.41;;;4.06;54.89
48606;BME280;8482;54.396;18.590;2023-11-21T13:13:15;101762.06;;;4.05;54.67
48606;BME280;8482;54.396;18.590;2023-11-21T13:16:03;101762.72;;;4.10;55.22